BLKT80 YWLM-YWLM
Flight info
| Callsign | BLKT80 |
|---|---|
| Flight time | N/A |
| Altitude | 12500 |
| Route | WLM DCT WLM088025 DCT WLM125025 DCT WLM |
| Aircraft | P8/M-SADE2E3FGHIRWZ/LB1 |
Departure
| Time | 2026-04-30 07:04 |
|---|---|
| Airport | Newcastle Airport (YWLM) |
Arrival
| Time | N/A |
|---|---|
| Airport | Newcastle Airport (YWLM) |
| Time | Latitude | Longitude | Altitude | Speed | Heading |
|---|---|---|---|---|---|
| 2026-04-30 06:44 | -32.79533 | 151.84154 | 33 ft | 0 kts | 233° |
| 2026-04-30 06:55 | -32.79533 | 151.84153 | 33 ft | 0 kts | 233° |
| 2026-04-30 06:55 | -32.79539 | 151.84145 | 31 ft | 4 kts | 232° |
| 2026-04-30 06:55 | -32.79581 | 151.84144 | 31 ft | 8 kts | 150° |
| 2026-04-30 06:56 | -32.79626 | 151.84179 | 34 ft | 8 kts | 149° |
| 2026-04-30 06:56 | -32.79672 | 151.84161 | 34 ft | 8 kts | 228° |
| 2026-04-30 06:56 | -32.79711 | 151.84098 | 33 ft | 10 kts | 234° |
| 2026-04-30 06:56 | -32.79749 | 151.84027 | 34 ft | 10 kts | 255° |
| 2026-04-30 06:57 | -32.79719 | 151.83954 | 32 ft | 10 kts | 310° |
| 2026-04-30 06:57 | -32.79673 | 151.83889 | 31 ft | 11 kts | 310° |
| 2026-04-30 06:57 | -32.79621 | 151.83816 | 30 ft | 13 kts | 310° |
| 2026-04-30 06:57 | -32.79560 | 151.83730 | 28 ft | 15 kts | 310° |
| 2026-04-30 06:58 | -32.79492 | 151.83636 | 28 ft | 15 kts | 310° |
| 2026-04-30 06:58 | -32.79427 | 151.83544 | 29 ft | 14 kts | 310° |
| 2026-04-30 06:58 | -32.79361 | 151.83452 | 29 ft | 16 kts | 311° |
| 2026-04-30 06:58 | -32.79291 | 151.83355 | 30 ft | 15 kts | 310° |
| 2026-04-30 06:59 | -32.79225 | 151.83263 | 33 ft | 14 kts | 310° |
| 2026-04-30 06:59 | -32.79161 | 151.83174 | 33 ft | 14 kts | 310° |
| 2026-04-30 06:59 | -32.79098 | 151.83085 | 34 ft | 14 kts | 310° |
| 2026-04-30 06:59 | -32.79034 | 151.82996 | 34 ft | 14 kts | 310° |
| 2026-04-30 07:00 | -32.78973 | 151.82911 | 31 ft | 14 kts | 310° |
| 2026-04-30 07:00 | -32.78914 | 151.82828 | 29 ft | 13 kts | 310° |
| 2026-04-30 07:00 | -32.78856 | 151.82747 | 29 ft | 13 kts | 310° |
| 2026-04-30 07:00 | -32.78800 | 151.82669 | 29 ft | 12 kts | 310° |
| 2026-04-30 07:01 | -32.78745 | 151.82592 | 28 ft | 12 kts | 310° |
| 2026-04-30 07:01 | -32.78692 | 151.82517 | 29 ft | 12 kts | 310° |
| 2026-04-30 07:01 | -32.78640 | 151.82445 | 30 ft | 11 kts | 310° |
| 2026-04-30 07:01 | -32.78632 | 151.82360 | 28 ft | 11 kts | 239° |
| 2026-04-30 07:02 | -32.78647 | 151.82341 | 29 ft | 0 kts | 221° |
| 2026-04-30 07:03 | -32.78660 | 151.82328 | 29 ft | 6 kts | 221° |
| 2026-04-30 07:03 | -32.78725 | 151.82291 | 27 ft | 13 kts | 166° |
| 2026-04-30 07:03 | -32.78759 | 151.82325 | 28 ft | 0 kts | 131° |
| 2026-04-30 07:03 | -32.78761 | 151.82328 | 28 ft | 6 kts | 131° |
| 2026-04-30 07:04 | -32.78949 | 151.82588 | 27 ft | 77 kts | 130° |
| 2026-04-30 07:04 | -32.79441 | 151.83277 | 28 ft | 139 kts | 130° |
| 2026-04-30 07:04 | -32.80173 | 151.84301 | 162 ft | 177 kts | 130° |
| 2026-04-30 07:04 | -32.80986 | 151.85434 | 877 ft | 182 kts | 128° |
| 2026-04-30 07:05 | -32.82775 | 151.87916 | 1707 ft | 221 kts | 127° |
| 2026-04-30 07:05 | -32.83740 | 151.89461 | 1967 ft | 240 kts | 111° |
| 2026-04-30 07:05 | -32.83900 | 151.91415 | 2663 ft | 242 kts | 76° |
| 2026-04-30 07:06 | -32.83094 | 151.93170 | 3456 ft | 247 kts | 51° |
| 2026-04-30 07:06 | -32.82205 | 151.94919 | 4097 ft | 253 kts | 78° |
| 2026-04-30 07:06 | -32.82295 | 151.96983 | 4916 ft | 253 kts | 101° |
| 2026-04-30 07:06 | -32.82625 | 151.99031 | 5636 ft | 256 kts | 100° |
| 2026-04-30 07:07 | -32.82854 | 152.00444 | 6110 ft | 261 kts | 100° |
| 2026-04-30 07:07 | -32.83208 | 152.02590 | 6763 ft | 267 kts | 100° |
| 2026-04-30 07:07 | -32.83666 | 152.05484 | 7707 ft | 272 kts | 100° |
| 2026-04-30 07:07 | -32.84005 | 152.07701 | 8511 ft | 271 kts | 99° |
| 2026-04-30 07:08 | -32.84234 | 152.09201 | 8903 ft | 275 kts | 99° |
| 2026-04-30 07:08 | -32.84689 | 152.12167 | 9104 ft | 275 kts | 99° |
| 2026-04-30 07:08 | -32.84916 | 152.13687 | 9169 ft | 278 kts | 99° |
| 2026-04-30 07:08 | -32.85249 | 152.15959 | 9213 ft | 280 kts | 99° |
| 2026-04-30 07:09 | -32.85584 | 152.18249 | 9098 ft | 281 kts | 99° |
| 2026-04-30 07:09 | -32.86007 | 152.21278 | 9013 ft | 280 kts | 98° |
| 2026-04-30 07:09 | -32.86216 | 152.22784 | 9004 ft | 277 kts | 98° |
| 2026-04-30 07:09 | -32.86530 | 152.25059 | 8992 ft | 275 kts | 99° |
| 2026-04-30 07:10 | -32.86835 | 152.27272 | 9003 ft | 275 kts | 98° |
| 2026-04-30 07:10 | -32.87144 | 152.29538 | 9006 ft | 279 kts | 98° |
| 2026-04-30 07:10 | -32.87455 | 152.31808 | 9006 ft | 277 kts | 99° |
| 2026-04-30 07:10 | -32.87766 | 152.34073 | 9007 ft | 276 kts | 98° |
| 2026-04-30 07:11 | -32.88204 | 152.36291 | 8999 ft | 276 kts | 108° |
| 2026-04-30 07:11 | -32.88907 | 152.38411 | 9012 ft | 275 kts | 111° |
| 2026-04-30 07:11 | -32.89659 | 152.40506 | 9002 ft | 275 kts | 112° |
| 2026-04-30 07:11 | -32.90410 | 152.42601 | 9008 ft | 275 kts | 111° |
| 2026-04-30 07:12 | -32.91149 | 152.44708 | 8998 ft | 276 kts | 111° |
| 2026-04-30 07:12 | -32.91879 | 152.46823 | 9001 ft | 277 kts | 111° |
| 2026-04-30 07:12 | -32.92601 | 152.48947 | 9010 ft | 277 kts | 110° |
| 2026-04-30 07:12 | -32.93306 | 152.51046 | 8998 ft | 278 kts | 111° |
| 2026-04-30 07:13 | -32.94019 | 152.53184 | 9007 ft | 278 kts | 110° |
| 2026-04-30 07:13 | -32.94739 | 152.55352 | 9008 ft | 278 kts | 110° |
| 2026-04-30 07:13 | -32.95436 | 152.57462 | 9013 ft | 277 kts | 110° |
| 2026-04-30 07:13 | -32.96139 | 152.59598 | 9002 ft | 277 kts | 110° |
| 2026-04-30 07:14 | -32.96842 | 152.61738 | 9002 ft | 277 kts | 110° |
| 2026-04-30 07:14 | -32.97541 | 152.63871 | 9011 ft | 277 kts | 110° |
| 2026-04-30 07:14 | -32.98240 | 152.66008 | 9004 ft | 277 kts | 111° |
| 2026-04-30 07:14 | -32.98941 | 152.68148 | 9008 ft | 278 kts | 110° |
| 2026-04-30 07:15 | -32.99642 | 152.70294 | 9019 ft | 278 kts | 110° |
| 2026-04-30 07:15 | -33.00343 | 152.72440 | 9015 ft | 278 kts | 110° |
| 2026-04-30 07:15 | -33.01041 | 152.74581 | 9007 ft | 278 kts | 110° |
| 2026-04-30 07:15 | -33.01740 | 152.76726 | 9011 ft | 277 kts | 110° |
| 2026-04-30 07:16 | -33.02438 | 152.78869 | 9005 ft | 276 kts | 110° |
| 2026-04-30 07:16 | -33.03125 | 152.80978 | 8797 ft | 271 kts | 110° |
| 2026-04-30 07:16 | -33.03801 | 152.83055 | 8365 ft | 268 kts | 110° |
| 2026-04-30 07:16 | -33.04481 | 152.85146 | 7807 ft | 270 kts | 110° |
| 2026-04-30 07:17 | -33.05152 | 152.87212 | 7434 ft | 265 kts | 110° |
| 2026-04-30 07:17 | -33.05819 | 152.89267 | 6922 ft | 266 kts | 110° |
| 2026-04-30 07:17 | -33.07151 | 152.93376 | 5975 ft | 263 kts | 109° |
| 2026-04-30 07:18 | -33.07802 | 152.95385 | 5629 ft | 257 kts | 109° |
| 2026-04-30 07:18 | -33.08437 | 152.97345 | 5151 ft | 257 kts | 109° |
| 2026-04-30 07:18 | -33.09080 | 152.99335 | 4632 ft | 257 kts | 109° |
| 2026-04-30 07:18 | -33.09717 | 153.01306 | 4245 ft | 252 kts | 109° |
| 2026-04-30 07:19 | -33.10347 | 153.03254 | 3757 ft | 252 kts | 109° |
| 2026-04-30 07:19 | -33.10975 | 153.05202 | 3277 ft | 250 kts | 109° |
| 2026-04-30 07:19 | -33.11598 | 153.07131 | 2794 ft | 249 kts | 109° |
| 2026-04-30 07:19 | -33.12218 | 153.09052 | 2488 ft | 247 kts | 109° |
| 2026-04-30 07:20 | -33.12835 | 153.10968 | 2201 ft | 247 kts | 109° |
| 2026-04-30 07:20 | -33.13448 | 153.12877 | 2060 ft | 249 kts | 110° |
| 2026-04-30 07:20 | -33.14074 | 153.14819 | 2014 ft | 249 kts | 109° |
| 2026-04-30 07:20 | -33.14681 | 153.16690 | 2002 ft | 234 kts | 108° |
| 2026-04-30 07:21 | -33.15246 | 153.18443 | 1990 ft | 219 kts | 109° |
| 2026-04-30 07:21 | -33.15529 | 153.20149 | 2001 ft | 204 kts | 84° |
| 2026-04-30 07:21 | -33.15364 | 153.21819 | 2015 ft | 204 kts | 83° |
| 2026-04-30 07:21 | -33.15222 | 153.23497 | 2013 ft | 202 kts | 84° |
| 2026-04-30 07:22 | -33.14941 | 153.26829 | 2017 ft | 201 kts | 84° |
| 2026-04-30 07:22 | -33.14802 | 153.28461 | 2022 ft | 200 kts | 83° |
| 2026-04-30 07:22 | -33.14703 | 153.30142 | 2007 ft | 201 kts | 95° |
| 2026-04-30 07:23 | -33.15222 | 153.31634 | 2034 ft | 202 kts | 129° |
| 2026-04-30 07:23 | -33.16443 | 153.32492 | 2016 ft | 213 kts | 166° |
| 2026-04-30 07:23 | -33.17954 | 153.32671 | 2014 ft | 223 kts | 173° |
| 2026-04-30 07:23 | -33.19493 | 153.32820 | 2015 ft | 221 kts | 170° |
| 2026-04-30 07:24 | -33.21021 | 153.33022 | 2008 ft | 221 kts | 169° |
| 2026-04-30 07:24 | -33.22546 | 153.33216 | 2023 ft | 220 kts | 170° |
| 2026-04-30 07:24 | -33.24069 | 153.33402 | 2033 ft | 220 kts | 170° |
| 2026-04-30 07:24 | -33.25591 | 153.33576 | 2017 ft | 221 kts | 174° |
| 2026-04-30 07:25 | -33.27096 | 153.33198 | 2025 ft | 226 kts | 207° |
| 2026-04-30 07:25 | -33.28204 | 153.31876 | 2010 ft | 231 kts | 243° |
| 2026-04-30 07:25 | -33.28628 | 153.30044 | 2029 ft | 230 kts | 262° |
| 2026-04-30 07:25 | -33.28794 | 153.28116 | 2041 ft | 235 kts | 265° |
| 2026-04-30 07:26 | -33.28957 | 153.26168 | 2018 ft | 235 kts | 265° |
| 2026-04-30 07:26 | -33.29111 | 153.24229 | 2024 ft | 234 kts | 265° |
| 2026-04-30 07:26 | -33.29267 | 153.22309 | 2004 ft | 230 kts | 265° |
| 2026-04-30 07:26 | -33.29419 | 153.20414 | 2003 ft | 228 kts | 265° |
| 2026-04-30 07:27 | -33.29577 | 153.18518 | 2015 ft | 233 kts | 265° |
| 2026-04-30 07:27 | -33.29731 | 153.16586 | 2021 ft | 233 kts | 265° |
| 2026-04-30 07:27 | -33.29868 | 153.14655 | 2021 ft | 234 kts | 265° |
| 2026-04-30 07:27 | -33.30008 | 153.12710 | 2015 ft | 236 kts | 265° |
| 2026-04-30 07:28 | -33.30158 | 153.10751 | 2034 ft | 236 kts | 264° |
| 2026-04-30 07:28 | -33.30322 | 153.08794 | 2012 ft | 237 kts | 264° |
| 2026-04-30 07:28 | -33.30483 | 153.06828 | 2021 ft | 238 kts | 264° |
| 2026-04-30 07:28 | -33.30653 | 153.04869 | 2012 ft | 235 kts | 264° |
| 2026-04-30 07:29 | -33.30523 | 153.02951 | 1999 ft | 232 kts | 293° |
| 2026-04-30 07:29 | -33.29604 | 153.01442 | 2027 ft | 225 kts | 328° |
| 2026-04-30 07:29 | -33.28187 | 153.00753 | 2042 ft | 220 kts | 352° |
| 2026-04-30 07:29 | -33.26681 | 153.00498 | 2019 ft | 222 kts | 358° |
| 2026-04-30 07:30 | -33.23611 | 153.00144 | 1997 ft | 220 kts | 358° |
| 2026-04-30 07:30 | -33.22104 | 152.99961 | 2021 ft | 215 kts | 358° |
| 2026-04-30 07:30 | -33.20618 | 152.99781 | 2012 ft | 214 kts | 358° |
| 2026-04-30 07:31 | -33.19140 | 152.99612 | 2011 ft | 212 kts | 358° |
| 2026-04-30 07:31 | -33.17672 | 152.99448 | 2002 ft | 212 kts | 358° |
| 2026-04-30 07:31 | -33.16210 | 152.99279 | 2019 ft | 211 kts | 358° |
| 2026-04-30 07:31 | -33.14738 | 152.99111 | 2021 ft | 214 kts | 358° |
| 2026-04-30 07:32 | -33.13236 | 152.98941 | 2019 ft | 219 kts | 358° |
| 2026-04-30 07:32 | -33.11713 | 152.98776 | 2016 ft | 220 kts | 358° |
| 2026-04-30 07:32 | -33.10196 | 152.98610 | 2016 ft | 219 kts | 358° |
| 2026-04-30 07:32 | -33.08683 | 152.98435 | 2003 ft | 218 kts | 358° |
| 2026-04-30 07:33 | -33.07180 | 152.98265 | 2020 ft | 216 kts | 358° |
| 2026-04-30 07:33 | -33.05683 | 152.98096 | 2006 ft | 216 kts | 358° |
| 2026-04-30 07:33 | -33.04182 | 152.97925 | 2010 ft | 217 kts | 358° |
| 2026-04-30 07:33 | -33.02701 | 152.97754 | 2005 ft | 216 kts | 358° |
| 2026-04-30 07:34 | -33.01203 | 152.97587 | 2017 ft | 216 kts | 358° |
| 2026-04-30 07:34 | -32.99708 | 152.97414 | 2007 ft | 216 kts | 358° |
| 2026-04-30 07:34 | -32.98215 | 152.97234 | 2009 ft | 215 kts | 358° |
| 2026-04-30 07:34 | -32.96729 | 152.97058 | 2019 ft | 214 kts | 358° |
| 2026-04-30 07:35 | -32.95247 | 152.96883 | 2008 ft | 213 kts | 358° |
| 2026-04-30 07:35 | -32.93773 | 152.96708 | 2017 ft | 213 kts | 358° |
| 2026-04-30 07:35 | -32.92304 | 152.96534 | 2005 ft | 213 kts | 358° |
| 2026-04-30 07:35 | -32.90820 | 152.96368 | 2028 ft | 216 kts | 358° |
| 2026-04-30 07:36 | -32.89310 | 152.96199 | 2023 ft | 219 kts | 358° |
| 2026-04-30 07:36 | -32.87786 | 152.96034 | 2009 ft | 220 kts | 358° |
| 2026-04-30 07:36 | -32.86268 | 152.95871 | 2011 ft | 219 kts | 358° |
| 2026-04-30 07:36 | -32.84752 | 152.95694 | 2007 ft | 218 kts | 358° |
| 2026-04-30 07:37 | -32.83252 | 152.95516 | 1990 ft | 214 kts | 358° |
| 2026-04-30 07:37 | -32.81775 | 152.95333 | 2003 ft | 213 kts | 358° |
| 2026-04-30 07:37 | -32.80304 | 152.95150 | 2004 ft | 212 kts | 358° |
| 2026-04-30 07:37 | -32.78838 | 152.94965 | 2012 ft | 213 kts | 358° |
| 2026-04-30 07:38 | -32.77336 | 152.94788 | 2036 ft | 218 kts | 358° |
| 2026-04-30 07:38 | -32.75827 | 152.94531 | 1994 ft | 222 kts | 343° |
| 2026-04-30 07:38 | -32.74573 | 152.93475 | 2014 ft | 226 kts | 308° |
| 2026-04-30 07:38 | -32.74007 | 152.91756 | 2001 ft | 226 kts | 272° |
| 2026-04-30 07:39 | -32.74329 | 152.89939 | 2021 ft | 230 kts | 239° |
| 2026-04-30 07:39 | -32.75408 | 152.88622 | 2021 ft | 226 kts | 205° |
| 2026-04-30 07:39 | -32.76916 | 152.88221 | 2013 ft | 218 kts | 169° |
| 2026-04-30 07:39 | -32.78326 | 152.88709 | 2013 ft | 213 kts | 155° |
| 2026-04-30 07:40 | -32.79688 | 152.89398 | 2013 ft | 213 kts | 151° |
| 2026-04-30 07:40 | -32.81023 | 152.90165 | 2007 ft | 213 kts | 150° |
| 2026-04-30 07:40 | -32.82357 | 152.90946 | 2020 ft | 214 kts | 150° |
| 2026-04-30 07:40 | -32.83694 | 152.91729 | 2021 ft | 214 kts | 150° |
| 2026-04-30 07:41 | -32.85037 | 152.92510 | 2024 ft | 216 kts | 150° |
| 2026-04-30 07:41 | -32.86391 | 152.93299 | 2008 ft | 218 kts | 150° |
| 2026-04-30 07:41 | -32.87743 | 152.94111 | 2028 ft | 219 kts | 150° |
| 2026-04-30 07:41 | -32.89098 | 152.94941 | 2027 ft | 219 kts | 149° |
| 2026-04-30 07:42 | -32.90455 | 152.95763 | 2002 ft | 218 kts | 150° |
| 2026-04-30 07:42 | -32.91805 | 152.96550 | 2001 ft | 214 kts | 150° |
| 2026-04-30 07:42 | -32.93140 | 152.97316 | 2002 ft | 213 kts | 151° |
| 2026-04-30 07:42 | -32.94470 | 152.98079 | 2001 ft | 211 kts | 151° |
| 2026-04-30 07:43 | -32.95793 | 152.98836 | 2009 ft | 211 kts | 151° |
| 2026-04-30 07:43 | -32.97128 | 152.99593 | 2013 ft | 215 kts | 151° |
| 2026-04-30 07:43 | -32.98496 | 153.00362 | 2020 ft | 218 kts | 151° |
| 2026-04-30 07:43 | -32.99868 | 153.01132 | 2028 ft | 217 kts | 151° |
| 2026-04-30 07:44 | -33.01233 | 153.01904 | 2020 ft | 217 kts | 151° |
| 2026-04-30 07:44 | -33.02593 | 153.02671 | 2030 ft | 216 kts | 151° |
| 2026-04-30 07:44 | -33.03930 | 153.03430 | 2018 ft | 216 kts | 151° |
| 2026-04-30 07:44 | -33.05288 | 153.04244 | 2009 ft | 215 kts | 142° |
| 2026-04-30 07:45 | -33.06308 | 153.05454 | 2038 ft | 209 kts | 126° |
| 2026-04-30 07:45 | -33.07221 | 153.06804 | 2028 ft | 209 kts | 126° |
| 2026-04-30 07:45 | -33.08136 | 153.08147 | 2037 ft | 208 kts | 126° |